sensor_id;sensor_type;location;lat;lon;timestamp;temperature;humidity
17200;DHT22;8716;52.268;20.968;2023-04-24T00:01:39;15.20;81.60
17200;DHT22;8716;52.268;20.968;2023-04-24T00:04:11;15.20;81.90
17200;DHT22;8716;52.268;20.968;2023-04-24T00:06:43;15.10;82.30
17200;DHT22;8716;52.268;20.968;2023-04-24T00:11:59;15.00;83.30
17200;DHT22;8716;52.268;20.968;2023-04-24T00:14:31;14.90;84.00
17200;DHT22;8716;52.268;20.968;2023-04-24T00:17:01;14.90;84.40
17200;DHT22;8716;52.268;20.968;2023-04-24T00:19:56;14.80;84.50
17200;DHT22;8716;52.268;20.968;2023-04-24T00:22:29;14.80;85.00
17200;DHT22;8716;52.268;20.968;2023-04-24T00:24:57;14.70;85.90
17200;DHT22;8716;52.268;20.968;2023-04-24T00:27:25;14.70;86.90
17200;DHT22;8716;52.268;20.968;2023-04-24T00:29:53;14.60;86.70
17200;DHT22;8716;52.268;20.968;2023-04-24T00:32:21;14.50;87.10
17200;DHT22;8716;52.268;20.968;2023-04-24T00:34:52;14.40;88.40
17200;DHT22;8716;52.268;20.968;2023-04-24T00:37:29;14.30;88.90
17200;DHT22;8716;52.268;20.968;2023-04-24T00:40:10;14.30;89.60
17200;DHT22;8716;52.268;20.968;2023-04-24T00:42:39;14.20;90.50
17200;DHT22;8716;52.268;20.968;2023-04-24T00:45:08;14.20;90.80
17200;DHT22;8716;52.268;20.968;2023-04-24T00:47:36;14.20;91.10
17200;DHT22;8716;52.268;20.968;2023-04-24T00:50:06;14.10;91.50
17200;DHT22;8716;52.268;20.968;2023-04-24T00:52:36;14.10;91.80
17200;DHT22;8716;52.268;20.968;2023-04-24T00:55:08;14.00;92.50
17200;DHT22;8716;52.268;20.968;2023-04-24T00:57:37;13.90;93.50
17200;DHT22;8716;52.268;20.968;2023-04-24T01:00:06;13.80;94.00
17200;DHT22;8716;52.268;20.968;2023-04-24T01:02:46;13.70;94.30
17200;DHT22;8716;52.268;20.968;2023-04-24T01:05:15;13.60;94.90
17200;DHT22;8716;52.268;20.968;2023-04-24T01:07:46;13.60;95.40
17200;DHT22;8716;52.268;20.968;2023-04-24T01:10:16;13.60;96.90
17200;DHT22;8716;52.268;20.968;2023-04-24T01:12:46;13.50;97.30
17200;DHT22;8716;52.268;20.968;2023-04-24T01:15:16;13.50;97.80
17200;DHT22;8716;52.268;20.968;2023-04-24T01:17:44;13.50;98.90
17200;DHT22;8716;52.268;20.968;2023-04-24T01:20:14;13.40;99.90
17200;DHT22;8716;52.268;20.968;2023-04-24T01:22:43;13.40;99.90
17200;DHT22;8716;52.268;20.968;2023-04-24T01:25:15;13.30;99.90
17200;DHT22;8716;52.268;20.968;2023-04-24T01:27:46;13.30;99.90
17200;DHT22;8716;52.268;20.968;2023-04-24T01:30:14;13.30;99.90
17200;DHT22;8716;52.268;20.968;2023-04-24T01:32:43;13.30;99.90
17200;DHT22;8716;52.268;20.968;2023-04-24T01:35:17;13.30;99.90
17200;DHT22;8716;52.268;20.968;2023-04-24T01:37:47;13.30;99.90
17200;DHT22;8716;52.268;20.968;2023-04-24T01:40:15;13.30;99.90
17200;DHT22;8716;52.268;20.968;2023-04-24T01:42:44;13.40;99.90
17200;DHT22;8716;52.268;20.968;2023-04-24T01:45:16;13.40;99.90
17200;DHT22;8716;52.268;20.968;2023-04-24T01:47:44;13.40;99.90
17200;DHT22;8716;52.268;20.968;2023-04-24T01:50:16;13.40;99.90
17200;DHT22;8716;52.268;20.968;2023-04-24T01:52:44;13.50;99.90
17200;DHT22;8716;52.268;20.968;2023-04-24T01:55:14;13.50;99.90
17200;DHT22;8716;52.268;20.968;2023-04-24T01:57:47;13.40;99.90
17200;DHT22;8716;52.268;20.968;2023-04-24T02:00:18;13.30;99.90
17200;DHT22;8716;52.268;20.968;2023-04-24T02:02:47;13.30;99.90
17200;DHT22;8716;52.268;20.968;2023-04-24T02:05:15;13.30;99.90
17200;DHT22;8716;52.268;20.968;2023-04-24T02:07:43;13.30;99.90
17200;DHT22;8716;52.268;20.968;2023-04-24T02:10:12;13.30;99.90
17200;DHT22;8716;52.268;20.968;2023-04-24T02:12:47;13.20;99.90
17200;DHT22;8716;52.268;20.968;2023-04-24T02:15:15;13.20;99.90
17200;DHT22;8716;52.268;20.968;2023-04-24T02:17:44;13.10;99.90
17200;DHT22;8716;52.268;20.968;2023-04-24T02:20:15;13.10;99.90
17200;DHT22;8716;52.268;20.968;2023-04-24T02:22:44;13.10;99.90
17200;DHT22;8716;52.268;20.968;2023-04-24T02:25:12;13.00;99.90
17200;DHT22;8716;52.268;20.968;2023-04-24T02:27:40;13.00;99.90
17200;DHT22;8716;52.268;20.968;2023-04-24T02:30:10;13.00;99.90
17200;DHT22;8716;52.268;20.968;2023-04-24T02:32:42;13.00;99.90
17200;DHT22;8716;52.268;20.968;2023-04-24T02:35:10;12.90;99.90
17200;DHT22;8716;52.268;20.968;2023-04-24T02:37:39;12.80;99.90
17200;DHT22;8716;52.268;20.968;2023-04-24T02:40:08;12.80;99.90
17200;DHT22;8716;52.268;20.968;2023-04-24T02:42:39;12.70;99.90
17200;DHT22;8716;52.268;20.968;2023-04-24T02:45:08;12.60;99.90
17200;DHT22;8716;52.268;20.968;2023-04-24T02:47:39;12.60;99.90
17200;DHT22;8716;52.268;20.968;2023-04-24T02:50:08;12.50;99.90
17200;DHT22;8716;52.268;20.968;2023-04-24T02:52:36;12.40;99.90
17200;DHT22;8716;52.268;20.968;2023-04-24T02:55:12;12.40;99.90
17200;DHT22;8716;52.268;20.968;2023-04-24T02:57:41;12.40;99.90
17200;DHT22;8716;52.268;20.968;2023-04-24T03:00:10;12.30;99.90
17200;DHT22;8716;52.268;20.968;2023-04-24T03:02:42;12.30;99.90
17200;DHT22;8716;52.268;20.968;2023-04-24T03:05:11;12.40;99.90
17200;DHT22;8716;52.268;20.968;2023-04-24T03:07:39;12.30;99.90
17200;DHT22;8716;52.268;20.968;2023-04-24T03:10:08;12.30;99.90
17200;DHT22;8716;52.268;20.968;2023-04-24T03:12:39;12.30;99.90
17200;DHT22;8716;52.268;20.968;2023-04-24T03:15:09;12.20;99.90
17200;DHT22;8716;52.268;20.968;2023-04-24T03:17:37;12.20;99.90
17200;DHT22;8716;52.268;20.968;2023-04-24T03:20:09;12.20;99.90
17200;DHT22;8716;52.268;20.968;2023-04-24T03:22:43;12.20;99.90
17200;DHT22;8716;52.268;20.968;2023-04-24T03:25:12;12.10;99.90
17200;DHT22;8716;52.268;20.968;2023-04-24T03:27:44;12.00;99.90
17200;DHT22;8716;52.268;20.968;2023-04-24T03:30:21;12.00;99.90
17200;DHT22;8716;52.268;20.968;2023-04-24T03:32:55;12.00;99.90
17200;DHT22;8716;52.268;20.968;2023-04-24T03:35:29;12.00;99.90
17200;DHT22;8716;52.268;20.968;2023-04-24T03:38:00;12.00;99.90
17200;DHT22;8716;52.268;20.968;2023-04-24T03:40:54;12.00;99.90
17200;DHT22;8716;52.268;20.968;2023-04-24T03:43:46;12.00;99.90
17200;DHT22;8716;52.268;20.968;2023-04-24T03:46:15;12.10;99.90
17200;DHT22;8716;52.268;20.968;2023-04-24T03:48:50;12.20;99.90
17200;DHT22;8716;52.268;20.968;2023-04-24T03:51:24;12.20;99.90
17200;DHT22;8716;52.268;20.968;2023-04-24T03:54:06;12.20;99.90
17200;DHT22;8716;52.268;20.968;2023-04-24T03:56:38;12.30;99.90
17200;DHT22;8716;52.268;20.968;2023-04-24T03:59:06;12.40;99.90
17200;DHT22;8716;52.268;20.968;2023-04-24T04:01:36;12.50;99.90
17200;DHT22;8716;52.268;20.968;2023-04-24T04:04:18;12.60;99.90
17200;DHT22;8716;52.268;20.968;2023-04-24T04:06:48;12.70;99.90
17200;DHT22;8716;52.268;20.968;2023-04-24T04:09:21;12.70;99.90
17200;DHT22;8716;52.268;20.968;2023-04-24T04:11:49;12.80;99.90
17200;DHT22;8716;52.268;20.968;2023-04-24T04:14:19;13.00;99.90
17200;DHT22;8716;52.268;20.968;2023-04-24T04:16:48;13.10;99.90
17200;DHT22;8716;52.268;20.968;2023-04-24T04:19:19;13.20;99.90
17200;DHT22;8716;52.268;20.968;2023-04-24T04:21:49;13.30;99.90
17200;DHT22;8716;52.268;20.968;2023-04-24T04:24:35;13.40;99.90
17200;DHT22;8716;52.268;20.968;2023-04-24T04:27:07;13.40;99.90
17200;DHT22;8716;52.268;20.968;2023-04-24T04:29:44;13.50;99.90
17200;DHT22;8716;52.268;20.968;2023-04-24T04:32:14;13.50;99.90
17200;DHT22;8716;52.268;20.968;2023-04-24T04:34:44;13.60;99.90
17200;DHT22;8716;52.268;20.968;2023-04-24T04:37:14;13.70;99.90
17200;DHT22;8716;52.268;20.968;2023-04-24T04:40:06;13.80;99.90
17200;DHT22;8716;52.268;20.968;2023-04-24T04:42:47;13.80;99.90
17200;DHT22;8716;52.268;20.968;2023-04-24T04:45:27;14.00;99.90
17200;DHT22;8716;52.268;20.968;2023-04-24T04:48:16;14.00;99.90
17200;DHT22;8716;52.268;20.968;2023-04-24T04:50:45;14.10;99.90
17200;DHT22;8716;52.268;20.968;2023-04-24T04:53:21;14.20;99.90
17200;DHT22;8716;52.268;20.968;2023-04-24T04:55:50;14.50;99.90
17200;DHT22;8716;52.268;20.968;2023-04-24T04:58:19;14.70;99.90
17200;DHT22;8716;52.268;20.968;2023-04-24T05:00:52;15.10;99.90
17200;DHT22;8716;52.268;20.968;2023-04-24T05:03:34;15.40;99.90
17200;DHT22;8716;52.268;20.968;2023-04-24T05:06:08;15.90;99.90
17200;DHT22;8716;52.268;20.968;2023-04-24T05:08:41;16.40;99.90
17200;DHT22;8716;52.268;20.968;2023-04-24T05:11:16;17.00;99.90
17200;DHT22;8716;52.268;20.968;2023-04-24T05:13:46;17.60;99.90
17200;DHT22;8716;52.268;20.968;2023-04-24T05:16:22;18.20;99.90
17200;DHT22;8716;52.268;20.968;2023-04-24T05:18:52;18.70;99.90
17200;DHT22;8716;52.268;20.968;2023-04-24T05:21:30;19.30;99.60
17200;DHT22;8716;52.268;20.968;2023-04-24T05:24:00;19.60;97.50
17200;DHT22;8716;52.268;20.968;2023-04-24T05:26:49;19.80;97.20
17200;DHT22;8716;52.268;20.968;2023-04-24T05:29:22;20.30;95.70
17200;DHT22;8716;52.268;20.968;2023-04-24T05:31:54;20.80;94.20
17200;DHT22;8716;52.268;20.968;2023-04-24T05:34:22;21.40;92.80
17200;DHT22;8716;52.268;20.968;2023-04-24T05:36:56;22.10;92.40
17200;DHT22;8716;52.268;20.968;2023-04-24T05:39:32;22.60;90.20
17200;DHT22;8716;52.268;20.968;2023-04-24T05:42:03;23.30;88.40
17200;DHT22;8716;52.268;20.968;2023-04-24T05:44:34;23.80;85.00
17200;DHT22;8716;52.268;20.968;2023-04-24T05:47:02;23.90;85.00
17200;DHT22;8716;52.268;20.968;2023-04-24T05:49:33;24.10;81.10
17200;DHT22;8716;52.268;20.968;2023-04-24T05:52:04;23.80;79.30
17200;DHT22;8716;52.268;20.968;2023-04-24T05:54:41;23.30;78.50
17200;DHT22;8716;52.268;20.968;2023-04-24T05:57:19;22.90;79.90
17200;DHT22;8716;52.268;20.968;2023-04-24T06:00:05;22.70;80.20
17200;DHT22;8716;52.268;20.968;2023-04-24T06:03:00;22.30;81.40
17200;DHT22;8716;52.268;20.968;2023-04-24T06:05:31;22.10;83.00
17200;DHT22;8716;52.268;20.968;2023-04-24T06:08:02;21.90;82.90
17200;DHT22;8716;52.268;20.968;2023-04-24T06:10:40;21.70;84.80
17200;DHT22;8716;52.268;20.968;2023-04-24T06:13:09;22.20;84.50
17200;DHT22;8716;52.268;20.968;2023-04-24T06:15:50;23.10;84.70
17200;DHT22;8716;52.268;20.968;2023-04-24T06:18:27;24.10;83.60
17200;DHT22;8716;52.268;20.968;2023-04-24T06:20:58;24.70;80.50
17200;DHT22;8716;52.268;20.968;2023-04-24T06:23:27;25.40;77.60
17200;DHT22;8716;52.268;20.968;2023-04-24T06:26:04;26.20;77.60
17200;DHT22;8716;52.268;20.968;2023-04-24T06:28:32;27.10;74.60
17200;DHT22;8716;52.268;20.968;2023-04-24T06:31:03;27.80;72.30
17200;DHT22;8716;52.268;20.968;2023-04-24T06:33:32;28.50;71.30
17200;DHT22;8716;52.268;20.968;2023-04-24T06:36:00;29.20;69.10
17200;DHT22;8716;52.268;20.968;2023-04-24T06:38:31;29.70;66.30
17200;DHT22;8716;52.268;20.968;2023-04-24T06:41:01;29.90;65.40
17200;DHT22;8716;52.268;20.968;2023-04-24T06:43:30;30.50;62.70
17200;DHT22;8716;52.268;20.968;2023-04-24T06:46:00;30.80;61.20
17200;DHT22;8716;52.268;20.968;2023-04-24T06:48:30;31.20;59.70
17200;DHT22;8716;52.268;20.968;2023-04-24T06:50:58;31.50;58.90
17200;DHT22;8716;52.268;20.968;2023-04-24T06:53:26;31.80;59.70
17200;DHT22;8716;52.268;20.968;2023-04-24T06:55:57;32.10;58.60
17200;DHT22;8716;52.268;20.968;2023-04-24T06:58:30;32.00;57.30
17200;DHT22;8716;52.268;20.968;2023-04-24T07:00:58;32.10;57.40
17200;DHT22;8716;52.268;20.968;2023-04-24T07:03:27;32.40;57.50
17200;DHT22;8716;52.268;20.968;2023-04-24T07:05:55;32.70;55.80
17200;DHT22;8716;52.268;20.968;2023-04-24T07:08:24;32.90;55.10
17200;DHT22;8716;52.268;20.968;2023-04-24T07:10:53;33.30;54.60
17200;DHT22;8716;52.268;20.968;2023-04-24T07:13:21;33.90;53.70
17200;DHT22;8716;52.268;20.968;2023-04-24T07:15:51;34.10;53.20
17200;DHT22;8716;52.268;20.968;2023-04-24T07:18:21;34.20;53.60
17200;DHT22;8716;52.268;20.968;2023-04-24T07:20:49;34.60;52.70
17200;DHT22;8716;52.268;20.968;2023-04-24T07:23:18;34.50;52.20
17200;DHT22;8716;52.268;20.968;2023-04-24T07:25:46;34.60;51.90
17200;DHT22;8716;52.268;20.968;2023-04-24T07:28:14;34.30;52.40
17200;DHT22;8716;52.268;20.968;2023-04-24T07:30:44;33.40;52.30
17200;DHT22;8716;52.268;20.968;2023-04-24T07:33:14;32.30;53.90
17200;DHT22;8716;52.268;20.968;2023-04-24T07:35:43;30.90;55.10
17200;DHT22;8716;52.268;20.968;2023-04-24T07:38:11;30.00;56.30
17200;DHT22;8716;52.268;20.968;2023-04-24T07:40:39;29.30;57.80
17200;DHT22;8716;52.268;20.968;2023-04-24T07:43:07;29.40;59.00
17200;DHT22;8716;52.268;20.968;2023-04-24T07:45:36;29.40;58.40
17200;DHT22;8716;52.268;20.968;2023-04-24T07:48:04;29.00;58.10
17200;DHT22;8716;52.268;20.968;2023-04-24T07:50:34;28.50;59.50
17200;DHT22;8716;52.268;20.968;2023-04-24T07:53:03;27.80;60.50
17200;DHT22;8716;52.268;20.968;2023-04-24T07:55:31;27.70;62.40
17200;DHT22;8716;52.268;20.968;2023-04-24T07:57:59;27.70;62.20
17200;DHT22;8716;52.268;20.968;2023-04-24T08:00:27;28.60;61.40
17200;DHT22;8716;52.268;20.968;2023-04-24T08:02:56;29.30;59.70
17200;DHT22;8716;52.268;20.968;2023-04-24T08:05:25;29.50;59.90
17200;DHT22;8716;52.268;20.968;2023-04-24T08:07:57;29.90;58.70
17200;DHT22;8716;52.268;20.968;2023-04-24T08:10:25;29.50;58.00
17200;DHT22;8716;52.268;20.968;2023-04-24T08:12:53;28.80;59.00
17200;DHT22;8716;52.268;20.968;2023-04-24T08:15:22;28.10;59.60
17200;DHT22;8716;52.268;20.968;2023-04-24T08:17:50;27.40;61.30
17200;DHT22;8716;52.268;20.968;2023-04-24T08:20:20;26.90;62.30
17200;DHT22;8716;52.268;20.968;2023-04-24T08:22:48;26.20;63.80
17200;DHT22;8716;52.268;20.968;2023-04-24T08:25:18;25.60;64.20
17200;DHT22;8716;52.268;20.968;2023-04-24T08:27:46;25.00;65.10
17200;DHT22;8716;52.268;20.968;2023-04-24T08:30:17;24.80;65.90
17200;DHT22;8716;52.268;20.968;2023-04-24T08:32:46;24.50;67.40
17200;DHT22;8716;52.268;20.968;2023-04-24T08:35:14;24.30;68.00
17200;DHT22;8716;52.268;20.968;2023-04-24T08:37:42;24.00;68.10
17200;DHT22;8716;52.268;20.968;2023-04-24T08:40:13;23.70;68.80
17200;DHT22;8716;52.268;20.968;2023-04-24T08:42:43;23.50;69.80
17200;DHT22;8716;52.268;20.968;2023-04-24T08:45:12;23.40;70.40
17200;DHT22;8716;52.268;20.968;2023-04-24T08:47:41;23.40;70.70
17200;DHT22;8716;52.268;20.968;2023-04-24T08:50:11;23.50;70.20
17200;DHT22;8716;52.268;20.968;2023-04-24T08:52:40;23.50;70.30
17200;DHT22;8716;52.268;20.968;2023-04-24T08:55:09;23.40;71.50
17200;DHT22;8716;52.268;20.968;2023-04-24T08:57:38;23.50;72.30
17200;DHT22;8716;52.268;20.968;2023-04-24T09:00:10;23.60;73.10
17200;DHT22;8716;52.268;20.968;2023-04-24T09:02:41;23.60;71.70
17200;DHT22;8716;52.268;20.968;2023-04-24T09:05:10;23.80;71.70
17200;DHT22;8716;52.268;20.968;2023-04-24T09:07:41;23.80;70.80
17200;DHT22;8716;52.268;20.968;2023-04-24T09:10:11;23.80;71.20
17200;DHT22;8716;52.268;20.968;2023-04-24T09:12:41;24.00;71.20
17200;DHT22;8716;52.268;20.968;2023-04-24T09:15:11;24.10;70.80
17200;DHT22;8716;52.268;20.968;2023-04-24T09:17:43;24.40;71.90
17200;DHT22;8716;52.268;20.968;2023-04-24T09:20:11;25.90;71.90
17200;DHT22;8716;52.268;20.968;2023-04-24T09:22:42;27.20;66.10
17200;DHT22;8716;52.268;20.968;2023-04-24T09:25:13;28.40;64.00
17200;DHT22;8716;52.268;20.968;2023-04-24T09:27:42;30.00;63.30
17200;DHT22;8716;52.268;20.968;2023-04-24T09:30:18;31.80;59.90
17200;DHT22;8716;52.268;20.968;2023-04-24T09:33:09;33.60;56.60
17200;DHT22;8716;52.268;20.968;2023-04-24T09:35:41;34.80;53.40
17200;DHT22;8716;52.268;20.968;2023-04-24T09:38:10;34.30;51.90
17200;DHT22;8716;52.268;20.968;2023-04-24T09:40:39;33.60;52.50
17200;DHT22;8716;52.268;20.968;2023-04-24T09:43:11;33.00;51.20
17200;DHT22;8716;52.268;20.968;2023-04-24T09:45:40;32.30;51.60
17200;DHT22;8716;52.268;20.968;2023-04-24T09:48:09;31.70;52.80
17200;DHT22;8716;52.268;20.968;2023-04-24T09:50:49;31.20;52.90
17200;DHT22;8716;52.268;20.968;2023-04-24T09:53:24;30.80;54.30
17200;DHT22;8716;52.268;20.968;2023-04-24T09:55:55;31.50;54.00
17200;DHT22;8716;52.268;20.968;2023-04-24T09:58:25;32.60;53.10
17200;DHT22;8716;52.268;20.968;2023-04-24T10:00:57;33.80;51.20
17200;DHT22;8716;52.268;20.968;2023-04-24T10:03:29;35.10;50.40
17200;DHT22;8716;52.268;20.968;2023-04-24T10:06:02;36.10;48.20
17200;DHT22;8716;52.268;20.968;2023-04-24T10:08:36;36.90;48.10
17200;DHT22;8716;52.268;20.968;2023-04-24T10:11:07;37.70;46.40
17200;DHT22;8716;52.268;20.968;2023-04-24T10:13:38;38.30;46.40
17200;DHT22;8716;52.268;20.968;2023-04-24T10:16:09;38.70;44.40
17200;DHT22;8716;52.268;20.968;2023-04-24T10:18:39;39.10;43.50
17200;DHT22;8716;52.268;20.968;2023-04-24T10:21:07;39.40;42.70
17200;DHT22;8716;52.268;20.968;2023-04-24T10:23:36;39.40;43.10
17200;DHT22;8716;52.268;20.968;2023-04-24T10:26:05;39.50;42.20
17200;DHT22;8716;52.268;20.968;2023-04-24T10:28:34;39.50;42.00
17200;DHT22;8716;52.268;20.968;2023-04-24T10:31:04;39.60;42.00
17200;DHT22;8716;52.268;20.968;2023-04-24T10:33:34;39.60;43.20
17200;DHT22;8716;52.268;20.968;2023-04-24T10:36:02;39.80;43.30
17200;DHT22;8716;52.268;20.968;2023-04-24T10:38:32;39.80;43.60
17200;DHT22;8716;52.268;20.968;2023-04-24T10:41:08;39.90;42.00
17200;DHT22;8716;52.268;20.968;2023-04-24T10:43:39;39.50;42.70
17200;DHT22;8716;52.268;20.968;2023-04-24T10:46:08;38.90;42.60
17200;DHT22;8716;52.268;20.968;2023-04-24T10:48:47;38.40;43.10
17200;DHT22;8716;52.268;20.968;2023-04-24T10:51:22;37.70;43.00
17200;DHT22;8716;52.268;20.968;2023-04-24T10:53:51;36.80;43.70
17200;DHT22;8716;52.268;20.968;2023-04-24T10:56:21;36.20;45.50
17200;DHT22;8716;52.268;20.968;2023-04-24T10:58:51;36.10;46.90
17200;DHT22;8716;52.268;20.968;2023-04-24T11:01:26;36.10;47.50
17200;DHT22;8716;52.268;20.968;2023-04-24T11:03:57;35.90;46.60
17200;DHT22;8716;52.268;20.968;2023-04-24T11:06:29;35.10;46.10
17200;DHT22;8716;52.268;20.968;2023-04-24T11:09:03;33.80;45.90
17200;DHT22;8716;52.268;20.968;2023-04-24T11:11:34;32.80;46.70
17200;DHT22;8716;52.268;20.968;2023-04-24T11:14:06;32.20;47.70
17200;DHT22;8716;52.268;20.968;2023-04-24T11:16:38;31.90;48.80
17200;DHT22;8716;52.268;20.968;2023-04-24T11:19:09;31.60;48.50
17200;DHT22;8716;52.268;20.968;2023-04-24T11:21:42;31.70;50.60
17200;DHT22;8716;52.268;20.968;2023-04-24T11:24:28;32.10;50.70
17200;DHT22;8716;52.268;20.968;2023-04-24T11:26:59;32.30;47.50
17200;DHT22;8716;52.268;20.968;2023-04-24T11:29:42;32.30;48.00
17200;DHT22;8716;52.268;20.968;2023-04-24T11:32:23;31.90;47.40
17200;DHT22;8716;52.268;20.968;2023-04-24T11:34:54;31.80;47.30
17200;DHT22;8716;52.268;20.968;2023-04-24T11:37:22;31.40;47.90
17200;DHT22;8716;52.268;20.968;2023-04-24T11:39:53;31.30;48.80
17200;DHT22;8716;52.268;20.968;2023-04-24T11:42:22;31.20;48.20
17200;DHT22;8716;52.268;20.968;2023-04-24T11:44:52;31.00;48.50
17200;DHT22;8716;52.268;20.968;2023-04-24T11:47:28;30.90;48.80
17200;DHT22;8716;52.268;20.968;2023-04-24T11:49:58;30.80;48.80
17200;DHT22;8716;52.268;20.968;2023-04-24T11:52:27;30.70;49.30
17200;DHT22;8716;52.268;20.968;2023-04-24T11:54:59;30.80;49.70
17200;DHT22;8716;52.268;20.968;2023-04-24T11:57:28;30.80;48.30
17200;DHT22;8716;52.268;20.968;2023-04-24T12:00:00;30.80;47.20
17200;DHT22;8716;52.268;20.968;2023-04-24T12:02:37;30.60;46.10
17200;DHT22;8716;52.268;20.968;2023-04-24T12:05:08;30.30;46.10
17200;DHT22;8716;52.268;20.968;2023-04-24T12:07:41;30.00;46.50
17200;DHT22;8716;52.268;20.968;2023-04-24T12:10:10;29.70;47.90
17200;DHT22;8716;52.268;20.968;2023-04-24T12:12:39;29.60;48.80
17200;DHT22;8716;52.268;20.968;2023-04-24T12:15:10;29.50;48.80
17200;DHT22;8716;52.268;20.968;2023-04-24T12:17:41;29.30;48.80
17200;DHT22;8716;52.268;20.968;2023-04-24T12:20:12;29.20;49.70
17200;DHT22;8716;52.268;20.968;2023-04-24T12:22:44;29.20;49.90
17200;DHT22;8716;52.268;20.968;2023-04-24T12:25:16;29.00;49.70
17200;DHT22;8716;52.268;20.968;2023-04-24T12:27:46;28.80;49.90
17200;DHT22;8716;52.268;20.968;2023-04-24T12:30:16;28.60;50.90
17200;DHT22;8716;52.268;20.968;2023-04-24T12:32:46;28.40;50.80
17200;DHT22;8716;52.268;20.968;2023-04-24T12:35:19;28.40;52.40
17200;DHT22;8716;52.268;20.968;2023-04-24T12:37:48;28.20;53.20
17200;DHT22;8716;52.268;20.968;2023-04-24T12:40:37;28.00;50.10
17200;DHT22;8716;52.268;20.968;2023-04-24T12:43:13;27.50;50.00
17200;DHT22;8716;52.268;20.968;2023-04-24T12:45:42;27.20;51.00
17200;DHT22;8716;52.268;20.968;2023-04-24T12:48:14;26.90;51.00
17200;DHT22;8716;52.268;20.968;2023-04-24T12:50:44;26.70;51.70
17200;DHT22;8716;52.268;20.968;2023-04-24T12:53:14;26.50;52.40
17200;DHT22;8716;52.268;20.968;2023-04-24T12:55:43;26.20;53.30
17200;DHT22;8716;52.268;20.968;2023-04-24T12:58:11;25.70;55.10
17200;DHT22;8716;52.268;20.968;2023-04-24T13:00:40;24.90;56.60
17200;DHT22;8716;52.268;20.968;2023-04-24T13:03:10;24.50;57.70
17200;DHT22;8716;52.268;20.968;2023-04-24T13:05:39;24.20;58.60
17200;DHT22;8716;52.268;20.968;2023-04-24T13:08:08;23.90;59.00
17200;DHT22;8716;52.268;20.968;2023-04-24T13:10:36;23.70;59.80
17200;DHT22;8716;52.268;20.968;2023-04-24T13:13:05;23.60;60.10
17200;DHT22;8716;52.268;20.968;2023-04-24T13:15:33;23.60;60.00
17200;DHT22;8716;52.268;20.968;2023-04-24T13:18:02;23.60;59.90
17200;DHT22;8716;52.268;20.968;2023-04-24T13:20:30;23.60;59.90
17200;DHT22;8716;52.268;20.968;2023-04-24T13:22:58;23.60;59.90
17200;DHT22;8716;52.268;20.968;2023-04-24T13:25:30;23.60;60.00
17200;DHT22;8716;52.268;20.968;2023-04-24T13:27:58;23.60;59.90
17200;DHT22;8716;52.268;20.968;2023-04-24T13:30:27;23.70;59.90
17200;DHT22;8716;52.268;20.968;2023-04-24T13:32:55;23.70;60.10
17200;DHT22;8716;52.268;20.968;2023-04-24T13:35:23;23.70;59.80
17200;DHT22;8716;52.268;20.968;2023-04-24T13:37:52;23.80;60.00
17200;DHT22;8716;52.268;20.968;2023-04-24T13:40:20;23.90;59.80
17200;DHT22;8716;52.268;20.968;2023-04-24T13:42:49;23.90;58.70
17200;DHT22;8716;52.268;20.968;2023-04-24T13:45:18;23.80;58.60
17200;DHT22;8716;52.268;20.968;2023-04-24T13:47:51;23.80;58.70
17200;DHT22;8716;52.268;20.968;2023-04-24T13:50:21;23.80;58.50
17200;DHT22;8716;52.268;20.968;2023-04-24T13:52:51;23.70;58.20
17200;DHT22;8716;52.268;20.968;2023-04-24T13:55:21;23.60;58.00
17200;DHT22;8716;52.268;20.968;2023-04-24T13:57:51;23.40;58.20
17200;DHT22;8716;52.268;20.968;2023-04-24T14:00:22;23.20;58.40
17200;DHT22;8716;52.268;20.968;2023-04-24T14:02:50;23.00;58.70
17200;DHT22;8716;52.268;20.968;2023-04-24T14:05:19;22.90;59.50
17200;DHT22;8716;52.268;20.968;2023-04-24T14:07:48;22.90;59.60
17200;DHT22;8716;52.268;20.968;2023-04-24T14:10:17;22.80;59.00
17200;DHT22;8716;52.268;20.968;2023-04-24T14:12:46;22.80;59.10
17200;DHT22;8716;52.268;20.968;2023-04-24T14:15:15;22.80;59.20
17200;DHT22;8716;52.268;20.968;2023-04-24T14:17:43;22.90;58.80
17200;DHT22;8716;52.268;20.968;2023-04-24T14:20:12;23.00;58.90
17200;DHT22;8716;52.268;20.968;2023-04-24T14:22:40;23.10;58.00
17200;DHT22;8716;52.268;20.968;2023-04-24T14:25:09;23.20;57.50
17200;DHT22;8716;52.268;20.968;2023-04-24T14:27:37;23.30;57.20
17200;DHT22;8716;52.268;20.968;2023-04-24T14:30:08;23.30;55.80
17200;DHT22;8716;52.268;20.968;2023-04-24T14:32:38;23.20;56.10
17200;DHT22;8716;52.268;20.968;2023-04-24T14:35:07;23.20;56.40
17200;DHT22;8716;52.268;20.968;2023-04-24T14:37:36;23.10;56.20
17200;DHT22;8716;52.268;20.968;2023-04-24T14:40:05;23.10;56.60
17200;DHT22;8716;52.268;20.968;2023-04-24T14:42:37;23.10;56.30
17200;DHT22;8716;52.268;20.968;2023-04-24T14:45:06;23.10;55.90
17200;DHT22;8716;52.268;20.968;2023-04-24T14:47:36;23.10;55.60
17200;DHT22;8716;52.268;20.968;2023-04-24T14:50:06;23.10;55.70
17200;DHT22;8716;52.268;20.968;2023-04-24T14:52:37;23.20;55.90
17200;DHT22;8716;52.268;20.968;2023-04-24T14:55:06;23.20;55.30
17200;DHT22;8716;52.268;20.968;2023-04-24T14:57:35;23.10;55.70
17200;DHT22;8716;52.268;20.968;2023-04-24T15:00:04;23.20;56.10
17200;DHT22;8716;52.268;20.968;2023-04-24T15:02:38;23.10;56.10
17200;DHT22;8716;52.268;20.968;2023-04-24T15:05:09;23.00;55.70
17200;DHT22;8716;52.268;20.968;2023-04-24T15:07:37;22.90;55.60
17200;DHT22;8716;52.268;20.968;2023-04-24T15:10:11;22.90;55.90
17200;DHT22;8716;52.268;20.968;2023-04-24T15:12:41;22.90;56.20
17200;DHT22;8716;52.268;20.968;2023-04-24T15:15:12;22.90;56.70
17200;DHT22;8716;52.268;20.968;2023-04-24T15:17:42;22.80;57.00
17200;DHT22;8716;52.268;20.968;2023-04-24T15:20:10;22.70;57.20
17200;DHT22;8716;52.268;20.968;2023-04-24T15:22:49;22.70;58.00
17200;DHT22;8716;52.268;20.968;2023-04-24T15:25:19;22.70;58.00
17200;DHT22;8716;52.268;20.968;2023-04-24T15:27:47;22.70;58.80
17200;DHT22;8716;52.268;20.968;2023-04-24T15:30:16;22.60;59.00
17200;DHT22;8716;52.268;20.968;2023-04-24T15:32:46;22.70;59.90
17200;DHT22;8716;52.268;20.968;2023-04-24T15:35:15;22.70;59.90
17200;DHT22;8716;52.268;20.968;2023-04-24T15:37:43;22.70;59.50
17200;DHT22;8716;52.268;20.968;2023-04-24T15:40:16;22.70;58.70
17200;DHT22;8716;52.268;20.968;2023-04-24T15:42:45;22.80;58.90
17200;DHT22;8716;52.268;20.968;2023-04-24T15:45:13;22.80;59.50
17200;DHT22;8716;52.268;20.968;2023-04-24T15:47:41;22.80;60.10
17200;DHT22;8716;52.268;20.968;2023-04-24T15:50:12;22.90;60.40
17200;DHT22;8716;52.268;20.968;2023-04-24T15:52:42;22.90;60.60
17200;DHT22;8716;52.268;20.968;2023-04-24T15:55:11;23.00;59.00
17200;DHT22;8716;52.268;20.968;2023-04-24T15:57:39;23.00;58.30